createdAt,value
2022-10-07T00:01:20.152Z,62.98
2022-10-07T00:03:52.181Z,62.64
2022-10-07T00:06:23.735Z,63.01
2022-10-07T00:08:56.534Z,63.36
2022-10-07T00:11:29.141Z,63.31
2022-10-07T00:14:03.989Z,63.50
2022-10-07T00:16:39.483Z,63.98
2022-10-07T00:19:14.364Z,63.45
2022-10-07T00:21:44.914Z,63.78
2022-10-07T00:24:16.957Z,63.70
2022-10-07T00:26:49.496Z,64.10
2022-10-07T00:29:21.342Z,64.93
2022-10-07T00:31:57.238Z,62.67
2022-10-07T00:34:29.836Z,63.40
2022-10-07T00:37:00.359Z,63.04
2022-10-07T00:39:31.485Z,62.36
2022-10-07T00:42:04.294Z,62.67
2022-10-07T00:44:44.924Z,63.44
2022-10-07T00:47:37.948Z,63.32
2022-10-07T00:50:19.563Z,63.84
2022-10-07T00:52:53.865Z,62.93
2022-10-07T00:55:26.980Z,64.27
2022-10-07T00:57:56.526Z,64.83
2022-10-07T01:00:28.283Z,63.87
2022-10-07T01:02:57.717Z,62.98
2022-10-07T01:05:32.437Z,63.39
2022-10-07T01:08:06.888Z,62.73
2022-10-07T01:11:14.340Z,63.34
2022-10-07T01:13:55.910Z,62.66
2022-10-07T01:16:40.533Z,61.00
2022-10-07T01:19:32.715Z,61.53
2022-10-07T01:22:13.221Z,61.87
2022-10-07T01:24:49.344Z,62.17
2022-10-07T01:27:25.398Z,63.03
2022-10-07T01:30:01.971Z,61.82
2022-10-07T01:32:44.885Z,63.64
2022-10-07T01:35:21.994Z,63.32
2022-10-07T01:38:01.196Z,63.36
2022-10-07T01:40:35.256Z,63.13
2022-10-07T01:43:07.357Z,64.20
2022-10-07T01:45:42.119Z,62.41
2022-10-07T01:48:15.955Z,62.58
2022-10-07T01:50:50.223Z,62.50
2022-10-07T01:53:25.373Z,63.29
2022-10-07T01:56:13.826Z,63.03
2022-10-07T01:59:13.588Z,63.18
2022-10-07T02:01:42.736Z,62.58
2022-10-07T02:04:26.096Z,63.29
2022-10-07T02:07:34.251Z,63.18
2022-10-07T02:10:09.166Z,62.71
2022-10-07T02:12:44.398Z,62.94
2022-10-07T02:15:35.809Z,63.26
2022-10-07T02:18:09.173Z,62.69
2022-10-07T02:20:43.161Z,61.81
2022-10-07T02:23:13.671Z,62.75
2022-10-07T02:25:50.563Z,62.95
2022-10-07T02:28:23.553Z,63.93
2022-10-07T02:30:57.083Z,63.36
2022-10-07T02:33:30.684Z,62.84
2022-10-07T02:36:09.792Z,64.17
2022-10-07T02:38:40.137Z,64.09
2022-10-07T02:41:32.030Z,63.00
2022-10-07T02:44:17.524Z,63.58
2022-10-07T02:47:18.277Z,61.63
2022-10-07T02:49:53.733Z,63.14
2022-10-07T02:52:28.813Z,62.73
2022-10-07T02:55:17.659Z,62.83
2022-10-07T02:57:50.015Z,62.77
2022-10-07T03:00:20.111Z,63.22
2022-10-07T03:02:54.743Z,62.73
2022-10-07T03:05:25.946Z,62.70
2022-10-07T03:07:59.841Z,63.08
2022-10-07T03:10:30.140Z,63.91
2022-10-07T03:12:59.735Z,63.38
2022-10-07T03:15:28.329Z,64.01
2022-10-07T03:17:57.281Z,63.96
2022-10-07T03:20:28.368Z,63.05
2022-10-07T03:23:00.438Z,62.44
2022-10-07T03:25:31.691Z,62.78
2022-10-07T03:28:00.964Z,62.05
2022-10-07T03:30:30.237Z,62.99
2022-10-07T03:32:58.800Z,63.29
2022-10-07T03:35:30.351Z,63.70
2022-10-07T03:37:59.656Z,63.94
2022-10-07T03:40:28.301Z,63.93
2022-10-07T03:42:56.543Z,63.09
2022-10-07T03:45:25.460Z,63.71
2022-10-07T03:47:54.091Z,63.01
2022-10-07T03:50:26.619Z,62.30
2022-10-07T03:52:56.390Z,62.58
2022-10-07T03:55:25.939Z,62.04
2022-10-07T03:57:58.535Z,62.55
2022-10-07T04:00:29.476Z,62.04
2022-10-07T04:03:02.370Z,63.32
2022-10-07T04:05:32.074Z,62.60
2022-10-07T04:08:05.029Z,63.34
2022-10-07T04:10:34.450Z,62.83
2022-10-07T04:13:05.032Z,62.97
2022-10-07T04:15:37.888Z,64.12
2022-10-07T04:18:07.340Z,65.12
2022-10-07T04:20:38.054Z,64.18
2022-10-07T04:23:09.337Z,64.25
2022-10-07T04:25:38.619Z,64.58
2022-10-07T04:28:16.217Z,64.09
2022-10-07T04:30:49.156Z,64.20
2022-10-07T04:33:19.537Z,63.05
2022-10-07T04:35:49.040Z,62.29
2022-10-07T04:38:20.043Z,62.47
2022-10-07T04:40:50.168Z,62.38
2022-10-07T04:43:23.067Z,62.47
2022-10-07T04:45:54.524Z,62.22
2022-10-07T04:48:23.982Z,61.31
2022-10-07T04:50:53.427Z,61.40
2022-10-07T04:53:23.645Z,62.76
2022-10-07T04:55:52.075Z,63.25
2022-10-07T04:58:22.491Z,63.96
2022-10-07T05:00:52.857Z,63.91
2022-10-07T05:03:25.131Z,64.13
2022-10-07T05:05:56.030Z,62.92
2022-10-07T05:08:25.820Z,63.79
2022-10-07T05:10:57.026Z,64.39
2022-10-07T05:13:28.505Z,65.20
2022-10-07T05:16:01.485Z,63.96
2022-10-07T05:18:31.338Z,64.25
2022-10-07T05:20:59.578Z,63.92
2022-10-07T05:23:31.240Z,63.10
2022-10-07T05:26:04.562Z,63.33
2022-10-07T05:28:34.950Z,62.54
2022-10-07T05:31:07.444Z,62.52
2022-10-07T05:33:37.978Z,63.31
2022-10-07T05:36:09.144Z,62.45
2022-10-07T05:38:39.904Z,63.35
2022-10-07T05:41:10.671Z,62.67
2022-10-07T05:43:42.262Z,63.17
2022-10-07T05:46:19.003Z,62.56
2022-10-07T05:48:49.018Z,62.35
2022-10-07T05:51:19.770Z,61.89
2022-10-07T05:53:47.975Z,61.36
2022-10-07T05:56:18.367Z,61.17
2022-10-07T05:58:46.706Z,60.71
2022-10-07T06:01:16.691Z,60.72
2022-10-07T06:03:49.552Z,60.79
2022-10-07T06:06:17.844Z,60.58
2022-10-07T06:08:46.936Z,61.42
2022-10-07T06:11:36.514Z,61.46
2022-10-07T06:14:06.997Z,61.86
2022-10-07T06:16:35.026Z,63.91
2022-10-07T06:19:03.009Z,63.49
2022-10-07T06:21:31.567Z,63.00
2022-10-07T06:26:29.662Z,62.33
2022-10-07T06:28:59.054Z,63.29
2022-10-07T06:31:28.837Z,62.74
2022-10-07T06:33:57.360Z,62.67
2022-10-07T06:36:25.460Z,62.63
2022-10-07T06:38:55.207Z,62.96
2022-10-07T06:41:24.224Z,62.38
2022-10-07T06:43:57.999Z,62.53
2022-10-07T06:46:27.272Z,62.51
2022-10-07T06:48:56.000Z,62.43
2022-10-07T06:51:24.350Z,62.04
2022-10-07T06:53:57.871Z,61.79
2022-10-07T06:56:26.864Z,61.56
2022-10-07T06:58:55.391Z,61.33
2022-10-07T07:01:23.779Z,61.02
2022-10-07T07:03:54.076Z,60.84
2022-10-07T07:06:23.251Z,60.32
2022-10-07T07:08:51.226Z,59.87
2022-10-07T07:11:37.924Z,59.28
2022-10-07T07:14:11.705Z,59.01
2022-10-07T07:16:40.664Z,58.67
2022-10-07T07:19:11.789Z,58.53
2022-10-07T07:21:41.167Z,58.22
2022-10-07T07:24:09.830Z,57.90
2022-10-07T07:26:40.485Z,57.77
2022-10-07T07:29:09.149Z,57.93
2022-10-07T07:31:37.944Z,57.84
2022-10-07T07:34:11.480Z,57.09
2022-10-07T07:36:45.578Z,57.20
2022-10-07T07:39:15.865Z,56.84
2022-10-07T07:41:48.688Z,56.34
2022-10-07T07:44:18.639Z,55.34
2022-10-07T07:46:51.280Z,54.61
2022-10-07T07:49:21.092Z,53.82
2022-10-07T07:51:50.302Z,52.96
2022-10-07T07:54:19.387Z,52.51
2022-10-07T07:56:47.399Z,52.43
2022-10-07T07:59:16.725Z,52.32
2022-10-07T08:01:45.575Z,51.83
2022-10-07T08:04:15.306Z,51.33
2022-10-07T08:06:43.610Z,50.93
2022-10-07T08:09:13.059Z,50.89
2022-10-07T08:11:45.470Z,50.62
2022-10-07T08:14:15.902Z,50.47
2022-10-07T08:16:45.235Z,49.94
2022-10-07T08:19:13.328Z,49.34
2022-10-07T08:21:41.716Z,48.82
2022-10-07T08:24:12.844Z,48.09
2022-10-07T08:26:41.193Z,47.57
2022-10-07T08:29:09.572Z,47.47
2022-10-07T08:31:38.792Z,47.43
2022-10-07T08:34:06.700Z,47.07
2022-10-07T08:36:35.089Z,46.63
2022-10-07T08:39:04.752Z,46.34
2022-10-07T08:41:49.988Z,46.03
2022-10-07T08:44:32.053Z,45.62
2022-10-07T08:47:16.439Z,45.57
2022-10-07T08:49:58.554Z,45.37
2022-10-07T08:52:37.994Z,45.24
2022-10-07T08:55:47.543Z,45.65
2022-10-07T08:58:45.603Z,44.64
2022-10-07T09:01:16.086Z,44.38
2022-10-07T09:04:02.484Z,43.85
2022-10-07T09:06:37.985Z,43.91
2022-10-07T09:09:16.274Z,43.76
2022-10-07T09:11:47.910Z,43.92
2022-10-07T09:14:25.211Z,44.00
2022-10-07T09:16:55.136Z,43.32
2022-10-07T09:19:28.848Z,42.74
2022-10-07T09:22:01.824Z,42.81
2022-10-07T09:24:31.754Z,42.81
2022-10-07T09:27:01.708Z,42.44
2022-10-07T09:29:30.865Z,42.25
2022-10-07T09:31:59.963Z,42.32
2022-10-07T09:34:29.981Z,41.96
2022-10-07T09:37:23.899Z,42.21
2022-10-07T09:39:58.076Z,41.19
2022-10-07T09:42:39.230Z,41.65
2022-10-07T09:45:25.366Z,41.30
2022-10-07T09:47:58.444Z,41.74
2022-10-07T09:50:32.712Z,40.86
2022-10-07T09:53:01.766Z,41.21
2022-10-07T09:55:40.319Z,40.65
2022-10-07T09:58:31.539Z,40.40
2022-10-07T10:01:02.268Z,40.39
2022-10-07T10:03:32.148Z,40.29
2022-10-07T10:06:11.766Z,40.31
2022-10-07T10:09:20.279Z,39.91
2022-10-07T10:12:07.612Z,39.05
2022-10-07T10:14:51.656Z,39.33
2022-10-07T10:17:40.176Z,39.17
2022-10-07T10:20:29.053Z,38.71
2022-10-07T10:22:57.513Z,38.53
2022-10-07T10:26:07.551Z,38.20
2022-10-07T10:28:51.864Z,37.83
2022-10-07T10:31:43.222Z,37.99
2022-10-07T10:34:35.043Z,37.15
2022-10-07T10:37:23.215Z,36.93
2022-10-07T10:40:03.007Z,37.26
2022-10-07T10:42:37.723Z,37.17
2022-10-07T10:45:20.399Z,37.76
2022-10-07T10:48:02.622Z,37.30
2022-10-07T10:50:45.943Z,36.80
2022-10-07T10:53:23.739Z,36.76
2022-10-07T10:56:20.736Z,36.14
2022-10-07T10:59:17.539Z,35.76
2022-10-07T11:02:00.922Z,35.36
2022-10-07T11:04:46.115Z,35.56
2022-10-07T11:07:25.562Z,35.25
2022-10-07T11:10:03.179Z,35.59
2022-10-07T11:33:29.285Z,36.06
2022-10-07T11:37:11.371Z,35.62
2022-10-07T11:45:29.349Z,34.96
2022-10-07T13:25:19.696Z,31.82
2022-10-07T13:28:04.236Z,32.75
2022-10-07T13:30:42.366Z,32.52
2022-10-07T13:33:28.431Z,33.08
2022-10-07T13:36:12.101Z,32.31
2022-10-07T13:38:40.370Z,33.06
2022-10-07T13:41:14.687Z,32.30
2022-10-07T13:44:47.529Z,32.35
2022-10-07T13:47:23.300Z,32.79
2022-10-07T13:49:55.033Z,32.86
2022-10-07T13:52:31.013Z,32.60
2022-10-07T13:55:01.827Z,32.31
2022-10-07T13:57:31.478Z,32.63
2022-10-07T14:00:03.571Z,32.02
2022-10-07T14:02:40.710Z,31.88
2022-10-07T14:05:24.106Z,32.27
2022-10-07T14:07:55.308Z,32.52
2022-10-07T14:10:25.746Z,32.85
2022-10-07T14:13:04.359Z,33.43
2022-10-07T14:15:36.355Z,33.78
2022-10-07T14:18:04.332Z,33.27
2022-10-07T14:20:33.926Z,33.83
2022-10-07T14:23:05.571Z,35.00
2022-10-07T14:26:00.411Z,34.90
2022-10-07T14:28:31.221Z,35.18
2022-10-07T14:31:25.366Z,34.91
2022-10-07T14:34:15.585Z,35.44
2022-10-07T14:37:22.574Z,35.52
2022-10-07T14:39:53.255Z,35.43
2022-10-07T14:42:27.508Z,35.88
2022-10-07T14:45:02.648Z,36.35
2022-10-07T14:47:37.955Z,36.16
2022-10-07T14:50:06.959Z,36.19
2022-10-07T14:52:44.277Z,36.36
2022-10-07T14:55:21.455Z,36.28
2022-10-07T14:57:49.890Z,36.94
2022-10-07T15:00:23.845Z,36.76
2022-10-07T15:02:57.795Z,36.75
2022-10-07T15:05:27.134Z,37.35
2022-10-07T15:07:56.442Z,37.29
2022-10-07T15:10:26.347Z,37.83
2022-10-07T15:12:56.111Z,37.76
2022-10-07T15:15:26.103Z,38.27
2022-10-07T15:17:54.773Z,38.65
2022-10-07T15:20:23.272Z,38.10
2022-10-07T15:22:52.318Z,39.44
2022-10-07T15:25:21.110Z,39.60
2022-10-07T15:27:49.536Z,40.24
2022-10-07T15:30:19.383Z,40.34
2022-10-07T15:32:48.316Z,41.67
2022-10-07T15:35:20.141Z,42.30
2022-10-07T15:37:49.230Z,43.01
2022-10-07T15:40:17.804Z,43.38
2022-10-07T15:42:48.123Z,43.59
2022-10-07T15:45:17.217Z,45.04
2022-10-07T15:47:44.982Z,45.55
2022-10-07T15:50:14.759Z,45.78
2022-10-07T15:52:42.851Z,45.91
2022-10-07T15:55:10.761Z,47.14
2022-10-07T15:57:39.856Z,47.32
2022-10-07T16:00:09.775Z,47.29
2022-10-07T16:02:39.491Z,47.82
2022-10-07T16:05:13.155Z,48.42
2022-10-07T16:07:42.243Z,48.51
2022-10-07T16:10:13.177Z,48.39
2022-10-07T16:12:41.715Z,48.05
2022-10-07T16:15:10.968Z,48.55
2022-10-07T16:17:38.951Z,49.03
2022-10-07T16:20:11.168Z,48.78
2022-10-07T16:22:40.354Z,48.79
2022-10-07T16:25:08.474Z,48.78
2022-10-07T16:27:54.533Z,49.61
2022-10-07T16:30:43.145Z,49.67
2022-10-07T16:33:12.056Z,50.02
2022-10-07T16:35:41.894Z,51.20
2022-10-07T16:38:09.330Z,52.53
2022-10-07T16:40:37.246Z,52.71
2022-10-07T16:43:05.649Z,52.83
2022-10-07T16:45:33.884Z,51.50
2022-10-07T16:48:02.946Z,50.75
2022-10-07T16:50:31.549Z,51.22
2022-10-07T16:52:59.492Z,50.41
2022-10-07T16:55:27.490Z,50.62
2022-10-07T16:57:55.235Z,49.40
2022-10-07T17:00:23.464Z,49.17
2022-10-07T17:02:51.566Z,50.18
2022-10-07T17:05:22.385Z,50.68
2022-10-07T17:07:50.802Z,50.07
2022-10-07T17:10:21.287Z,50.71
2022-10-07T17:12:51.046Z,50.95
2022-10-07T17:15:19.239Z,52.12
2022-10-07T17:17:47.604Z,51.75
2022-10-07T17:20:16.826Z,51.72
2022-10-07T17:22:44.722Z,52.17
2022-10-07T17:25:13.116Z,53.35
2022-10-07T17:27:41.274Z,53.58
2022-10-07T17:30:09.909Z,52.58
2022-10-07T17:32:38.756Z,51.88
2022-10-07T17:35:08.627Z,52.42
2022-10-07T17:37:36.858Z,51.61
2022-10-07T17:40:05.869Z,51.62
2022-10-07T17:42:34.377Z,52.47
2022-10-07T17:45:04.765Z,52.21
2022-10-07T17:47:33.673Z,52.02
2022-10-07T17:50:01.602Z,51.92
2022-10-07T17:52:32.317Z,51.96
2022-10-07T17:55:02.187Z,52.25
2022-10-07T17:57:30.214Z,51.86
2022-10-07T17:59:58.692Z,51.77
2022-10-07T18:02:28.767Z,52.38
2022-10-07T18:04:57.589Z,52.16
2022-10-07T18:07:26.589Z,52.92
2022-10-07T18:09:54.635Z,53.76
2022-10-07T18:12:41.757Z,52.82
2022-10-07T18:15:20.858Z,53.55
2022-10-07T18:17:51.575Z,53.56
2022-10-07T18:20:23.135Z,54.34
2022-10-07T18:22:57.366Z,53.94
2022-10-07T18:25:25.414Z,53.55
2022-10-07T18:27:54.651Z,54.33
2022-10-07T18:30:23.499Z,54.06
2022-10-07T18:32:52.364Z,55.22
2022-10-07T18:35:24.504Z,53.98
2022-10-07T18:37:54.519Z,54.96
2022-10-07T18:40:23.608Z,54.50
2022-10-07T18:42:53.360Z,54.29
2022-10-07T18:45:23.658Z,54.21
2022-10-07T18:47:53.007Z,56.05
2022-10-07T18:50:25.669Z,54.61
2022-10-07T18:52:57.284Z,55.60
2022-10-07T18:55:26.453Z,53.84
2022-10-07T18:57:55.135Z,54.34
2022-10-07T19:00:28.259Z,55.31
2022-10-07T19:02:57.029Z,55.18
2022-10-07T19:05:31.633Z,55.18
2022-10-07T19:08:03.299Z,55.29
2022-10-07T19:10:40.025Z,55.09
2022-10-07T19:13:34.343Z,54.39
2022-10-07T19:16:04.547Z,54.91
2022-10-07T19:18:35.748Z,55.85
2022-10-07T19:21:05.151Z,55.38
2022-10-07T19:23:33.000Z,55.34
2022-10-07T19:26:02.230Z,54.35
2022-10-07T19:28:31.408Z,54.99
2022-10-07T19:30:59.346Z,55.42
2022-10-07T19:33:28.205Z,55.74
2022-10-07T19:35:58.073Z,57.54
2022-10-07T19:38:27.220Z,55.93
2022-10-07T19:40:57.898Z,57.81
2022-10-07T19:43:26.383Z,57.13
2022-10-07T19:45:54.395Z,57.01
2022-10-07T19:48:31.215Z,56.78
2022-10-07T19:51:04.834Z,56.63
2022-10-07T19:53:36.787Z,56.63
2022-10-07T19:56:06.915Z,55.41
2022-10-07T19:58:39.378Z,55.51
2022-10-07T20:01:10.351Z,57.50
2022-10-07T20:03:38.364Z,56.66
2022-10-07T20:06:12.501Z,55.88
2022-10-07T20:08:43.687Z,56.62
2022-10-07T20:11:18.277Z,56.64
2022-10-07T20:13:46.840Z,57.68
2022-10-07T20:16:19.484Z,57.67
2022-10-07T20:18:52.445Z,58.93
2022-10-07T20:21:25.071Z,57.81
2022-10-07T20:23:56.104Z,58.82
2022-10-07T20:26:30.233Z,58.25
2022-10-07T20:29:04.888Z,58.83
2022-10-07T20:31:36.414Z,59.65
2022-10-07T20:34:10.233Z,60.11
2022-10-07T20:36:39.031Z,59.16
2022-10-07T20:39:34.155Z,59.41
2022-10-07T20:42:22.720Z,59.16
2022-10-07T20:44:52.230Z,59.32
2022-10-07T20:47:26.028Z,59.81
2022-10-07T20:49:57.817Z,58.81
2022-10-07T20:52:28.469Z,59.71
2022-10-07T20:54:59.945Z,59.81
2022-10-07T20:57:33.428Z,60.96
2022-10-07T21:00:03.715Z,60.20
2022-10-07T21:02:33.755Z,59.87
2022-10-07T21:05:02.497Z,59.82
2022-10-07T21:07:30.714Z,58.49
2022-10-07T21:09:59.024Z,58.72
2022-10-07T21:12:29.453Z,58.85
2022-10-07T21:15:00.590Z,59.19
2022-10-07T21:17:29.233Z,59.24
2022-10-07T21:19:57.817Z,59.71
2022-10-07T21:22:25.689Z,58.94
2022-10-07T21:24:55.564Z,59.21
2022-10-07T21:27:23.457Z,59.21
2022-10-07T21:29:51.375Z,58.84
2022-10-07T21:32:20.237Z,57.51
2022-10-07T21:34:48.921Z,58.69
2022-10-07T21:37:17.391Z,58.22
2022-10-07T21:39:45.722Z,58.43
2022-10-07T21:42:18.910Z,59.64
2022-10-07T21:44:48.198Z,59.31
2022-10-07T21:47:16.333Z,58.01
2022-10-07T21:49:45.360Z,57.89
2022-10-07T21:52:13.901Z,57.30
2022-10-07T21:54:41.754Z,59.29
2022-10-07T21:57:09.750Z,59.67
2022-10-07T21:59:39.151Z,59.56
2022-10-07T22:02:09.156Z,60.13
2022-10-07T22:04:43.947Z,59.91
2022-10-07T22:07:33.276Z,58.98
2022-10-07T22:10:08.489Z,59.35
2022-10-07T22:12:37.487Z,57.66
2022-10-07T22:15:10.461Z,58.20
2022-10-07T22:17:42.511Z,58.52
2022-10-07T22:20:16.146Z,57.74
2022-10-07T22:22:47.408Z,57.67
2022-10-07T22:25:17.284Z,58.27
2022-10-07T22:27:51.799Z,58.36
2022-10-07T22:30:26.678Z,59.13
2022-10-07T22:32:57.270Z,59.64
2022-10-07T22:35:30.529Z,60.70
2022-10-07T22:38:02.474Z,60.17
2022-10-07T22:40:32.778Z,59.23
2022-10-07T22:43:03.407Z,59.53
2022-10-07T22:45:36.810Z,60.34
2022-10-07T22:48:09.357Z,60.98
2022-10-07T22:50:40.074Z,60.84
2022-10-07T22:53:08.893Z,59.12
2022-10-07T22:55:37.815Z,59.71
2022-10-07T22:58:07.845Z,61.22
2022-10-07T23:00:38.776Z,61.13
2022-10-07T23:03:11.471Z,61.12
2022-10-07T23:05:42.802Z,62.76
2022-10-07T23:08:13.809Z,60.79
2022-10-07T23:10:44.843Z,60.34
2022-10-07T23:13:16.367Z,60.21
2022-10-07T23:15:59.799Z,59.53
2022-10-07T23:18:32.145Z,59.28
2022-10-07T23:21:05.774Z,60.35
2022-10-07T23:23:39.752Z,59.30
2022-10-07T23:26:19.939Z,58.02
2022-10-07T23:28:52.573Z,57.82
2022-10-07T23:31:24.962Z,57.92
2022-10-07T23:34:02.222Z,58.29
2022-10-07T23:36:33.720Z,58.33
2022-10-07T23:39:05.016Z,57.83
2022-10-07T23:41:36.619Z,59.67
2022-10-07T23:44:09.572Z,60.70
2022-10-07T23:46:43.529Z,60.95
2022-10-07T23:49:17.730Z,61.12
2022-10-07T23:51:47.979Z,59.38
2022-10-07T23:54:18.646Z,60.45
2022-10-07T23:56:49.872Z,60.32
2022-10-07T23:59:21.636Z,59.77
